sensor_id;sensor_type;location;lat;lon;timestamp;P1;durP1;ratioP1;P2;durP2;ratioP2
74689;SDS011;63221;51.860;-2.188;2023-07-13T00:01:43;8.80;;;2.15;;
74689;SDS011;63221;51.860;-2.188;2023-07-13T00:04:11;9.35;;;2.53;;
74689;SDS011;63221;51.860;-2.188;2023-07-13T00:06:36;7.00;;;2.00;;
74689;SDS011;63221;51.860;-2.188;2023-07-13T00:09:01;8.07;;;2.00;;
74689;SDS011;63221;51.860;-2.188;2023-07-13T00:11:27;9.48;;;2.10;;
74689;SDS011;63221;51.860;-2.188;2023-07-13T00:13:53;5.73;;;2.17;;
74689;SDS011;63221;51.860;-2.188;2023-07-13T00:16:18;4.83;;;1.53;;
74689;SDS011;63221;51.860;-2.188;2023-07-13T00:18:44;5.73;;;1.57;;
74689;SDS011;63221;51.860;-2.188;2023-07-13T00:21:11;7.55;;;2.92;;
74689;SDS011;63221;51.860;-2.188;2023-07-13T00:23:38;6.20;;;2.20;;
74689;SDS011;63221;51.860;-2.188;2023-07-13T00:26:05;6.07;;;2.40;;
74689;SDS011;63221;51.860;-2.188;2023-07-13T00:28:32;3.78;;;2.03;;
74689;SDS011;63221;51.860;-2.188;2023-07-13T00:30:58;3.08;;;1.98;;
74689;SDS011;63221;51.860;-2.188;2023-07-13T00:33:24;3.60;;;1.80;;
74689;SDS011;63221;51.860;-2.188;2023-07-13T00:35:49;5.65;;;1.80;;
74689;SDS011;63221;51.860;-2.188;2023-07-13T00:38:15;6.87;;;2.37;;
74689;SDS011;63221;51.860;-2.188;2023-07-13T00:40:41;5.32;;;2.25;;
74689;SDS011;63221;51.860;-2.188;2023-07-13T00:43:13;7.23;;;2.03;;
74689;SDS011;63221;51.860;-2.188;2023-07-13T00:48:09;6.73;;;1.83;;
74689;SDS011;63221;51.860;-2.188;2023-07-13T00:50:36;6.10;;;1.63;;
74689;SDS011;63221;51.860;-2.188;2023-07-13T00:53:02;6.10;;;2.35;;
74689;SDS011;63221;51.860;-2.188;2023-07-13T00:55:28;4.80;;;1.42;;
74689;SDS011;63221;51.860;-2.188;2023-07-13T00:57:54;7.57;;;2.80;;
74689;SDS011;63221;51.860;-2.188;2023-07-13T01:00:19;7.20;;;2.15;;
74689;SDS011;63221;51.860;-2.188;2023-07-13T01:02:46;7.83;;;2.20;;
74689;SDS011;63221;51.860;-2.188;2023-07-13T01:05:12;5.05;;;1.60;;
74689;SDS011;63221;51.860;-2.188;2023-07-13T01:07:40;3.33;;;1.75;;
74689;SDS011;63221;51.860;-2.188;2023-07-13T01:10:07;4.93;;;2.33;;
74689;SDS011;63221;51.860;-2.188;2023-07-13T01:12:33;6.57;;;2.85;;
74689;SDS011;63221;51.860;-2.188;2023-07-13T01:14:59;3.30;;;1.53;;
74689;SDS011;63221;51.860;-2.188;2023-07-13T01:17:25;5.30;;;2.05;;
74689;SDS011;63221;51.860;-2.188;2023-07-13T01:19:51;5.33;;;1.70;;
74689;SDS011;63221;51.860;-2.188;2023-07-13T01:22:17;6.37;;;1.73;;
74689;SDS011;63221;51.860;-2.188;2023-07-13T01:24:45;3.97;;;1.40;;
74689;SDS011;63221;51.860;-2.188;2023-07-13T01:27:12;5.97;;;1.80;;
74689;SDS011;63221;51.860;-2.188;2023-07-13T01:29:44;6.95;;;2.63;;
74689;SDS011;63221;51.860;-2.188;2023-07-13T01:32:13;3.88;;;1.75;;
74689;SDS011;63221;51.860;-2.188;2023-07-13T01:34:40;3.85;;;1.85;;
74689;SDS011;63221;51.860;-2.188;2023-07-13T01:37:09;4.28;;;2.22;;
74689;SDS011;63221;51.860;-2.188;2023-07-13T01:39:35;7.77;;;2.40;;
74689;SDS011;63221;51.860;-2.188;2023-07-13T01:42:02;5.72;;;1.60;;
74689;SDS011;63221;51.860;-2.188;2023-07-13T01:44:27;4.83;;;1.67;;
74689;SDS011;63221;51.860;-2.188;2023-07-13T01:46:53;5.43;;;1.40;;
74689;SDS011;63221;51.860;-2.188;2023-07-13T01:49:18;6.43;;;2.03;;
74689;SDS011;63221;51.860;-2.188;2023-07-13T01:51:44;3.40;;;1.83;;
74689;SDS011;63221;51.860;-2.188;2023-07-13T01:54:09;5.88;;;1.63;;
74689;SDS011;63221;51.860;-2.188;2023-07-13T01:56:35;5.00;;;1.70;;
74689;SDS011;63221;51.860;-2.188;2023-07-13T01:59:00;7.77;;;1.47;;
74689;SDS011;63221;51.860;-2.188;2023-07-13T02:01:25;4.33;;;1.80;;
74689;SDS011;63221;51.860;-2.188;2023-07-13T02:03:51;8.03;;;1.50;;
74689;SDS011;63221;51.860;-2.188;2023-07-13T02:06:16;8.00;;;1.77;;
74689;SDS011;63221;51.860;-2.188;2023-07-13T02:08:41;4.33;;;1.90;;
74689;SDS011;63221;51.860;-2.188;2023-07-13T02:11:07;16.60;;;2.57;;
74689;SDS011;63221;51.860;-2.188;2023-07-13T02:13:33;3.47;;;2.03;;
74689;SDS011;63221;51.860;-2.188;2023-07-13T02:15:59;4.63;;;1.50;;
74689;SDS011;63221;51.860;-2.188;2023-07-13T02:18:25;5.83;;;1.43;;
74689;SDS011;63221;51.860;-2.188;2023-07-13T02:20:50;7.75;;;2.15;;
74689;SDS011;63221;51.860;-2.188;2023-07-13T02:23:16;6.13;;;2.13;;
74689;SDS011;63221;51.860;-2.188;2023-07-13T02:25:41;4.47;;;2.40;;
74689;SDS011;63221;51.860;-2.188;2023-07-13T02:28:07;5.03;;;1.90;;
74689;SDS011;63221;51.860;-2.188;2023-07-13T02:30:33;6.82;;;1.38;;
74689;SDS011;63221;51.860;-2.188;2023-07-13T02:32:59;8.45;;;1.60;;
74689;SDS011;63221;51.860;-2.188;2023-07-13T02:35:25;5.70;;;1.83;;
74689;SDS011;63221;51.860;-2.188;2023-07-13T02:37:50;8.03;;;1.97;;
74689;SDS011;63221;51.860;-2.188;2023-07-13T02:40:16;4.13;;;1.63;;
74689;SDS011;63221;51.860;-2.188;2023-07-13T02:42:41;5.53;;;1.50;;
74689;SDS011;63221;51.860;-2.188;2023-07-13T02:45:07;6.70;;;2.80;;
74689;SDS011;63221;51.860;-2.188;2023-07-13T02:47:33;3.85;;;1.60;;
74689;SDS011;63221;51.860;-2.188;2023-07-13T02:49:59;5.30;;;1.53;;
74689;SDS011;63221;51.860;-2.188;2023-07-13T02:52:25;5.60;;;1.70;;
74689;SDS011;63221;51.860;-2.188;2023-07-13T02:54:50;5.40;;;2.00;;
74689;SDS011;63221;51.860;-2.188;2023-07-13T02:57:16;6.40;;;2.00;;
74689;SDS011;63221;51.860;-2.188;2023-07-13T02:59:41;3.58;;;1.85;;
74689;SDS011;63221;51.860;-2.188;2023-07-13T03:02:07;5.70;;;1.67;;
74689;SDS011;63221;51.860;-2.188;2023-07-13T03:04:34;10.45;;;2.13;;
74689;SDS011;63221;51.860;-2.188;2023-07-13T03:07:00;9.55;;;1.73;;
74689;SDS011;63221;51.860;-2.188;2023-07-13T03:09:26;7.87;;;1.87;;
74689;SDS011;63221;51.860;-2.188;2023-07-13T03:11:52;5.17;;;1.33;;
74689;SDS011;63221;51.860;-2.188;2023-07-13T03:14:19;6.70;;;2.10;;
74689;SDS011;63221;51.860;-2.188;2023-07-13T03:16:45;4.78;;;2.15;;
74689;SDS011;63221;51.860;-2.188;2023-07-13T03:19:10;5.70;;;1.83;;
74689;SDS011;63221;51.860;-2.188;2023-07-13T03:21:36;7.67;;;2.00;;
74689;SDS011;63221;51.860;-2.188;2023-07-13T03:24:02;7.75;;;2.85;;
74689;SDS011;63221;51.860;-2.188;2023-07-13T03:26:27;5.17;;;1.43;;
74689;SDS011;63221;51.860;-2.188;2023-07-13T03:28:53;4.33;;;1.70;;
74689;SDS011;63221;51.860;-2.188;2023-07-13T03:31:19;5.72;;;1.40;;
74689;SDS011;63221;51.860;-2.188;2023-07-13T03:33:46;3.07;;;1.40;;
74689;SDS011;63221;51.860;-2.188;2023-07-13T03:36:16;4.85;;;1.90;;
74689;SDS011;63221;51.860;-2.188;2023-07-13T03:38:47;5.70;;;2.10;;
74689;SDS011;63221;51.860;-2.188;2023-07-13T03:41:16;8.20;;;1.53;;
74689;SDS011;63221;51.860;-2.188;2023-07-13T03:43:42;4.85;;;1.55;;
74689;SDS011;63221;51.860;-2.188;2023-07-13T03:46:07;10.00;;;2.40;;
74689;SDS011;63221;51.860;-2.188;2023-07-13T03:48:33;5.82;;;1.92;;
74689;SDS011;63221;51.860;-2.188;2023-07-13T03:50:58;6.27;;;2.07;;
74689;SDS011;63221;51.860;-2.188;2023-07-13T03:53:24;7.33;;;1.73;;
74689;SDS011;63221;51.860;-2.188;2023-07-13T03:55:49;2.97;;;1.50;;
74689;SDS011;63221;51.860;-2.188;2023-07-13T03:58:57;4.40;;;1.90;;
74689;SDS011;63221;51.860;-2.188;2023-07-13T04:01:05;6.03;;;2.20;;
74689;SDS011;63221;51.860;-2.188;2023-07-13T04:03:32;5.22;;;2.15;;
74689;SDS011;63221;51.860;-2.188;2023-07-13T04:05:58;6.40;;;2.93;;
74689;SDS011;63221;51.860;-2.188;2023-07-13T04:08:28;5.00;;;1.55;;
74689;SDS011;63221;51.860;-2.188;2023-07-13T04:10:55;3.25;;;1.60;;
74689;SDS011;63221;51.860;-2.188;2023-07-13T04:13:21;6.65;;;2.15;;
74689;SDS011;63221;51.860;-2.188;2023-07-13T04:15:46;6.80;;;2.13;;
74689;SDS011;63221;51.860;-2.188;2023-07-13T04:18:12;3.27;;;2.23;;
74689;SDS011;63221;51.860;-2.188;2023-07-13T04:20:37;6.68;;;3.03;;
74689;SDS011;63221;51.860;-2.188;2023-07-13T04:23:03;7.73;;;2.77;;
74689;SDS011;63221;51.860;-2.188;2023-07-13T04:25:28;8.70;;;2.77;;
74689;SDS011;63221;51.860;-2.188;2023-07-13T04:27:54;4.97;;;2.58;;
74689;SDS011;63221;51.860;-2.188;2023-07-13T04:30:20;5.13;;;1.77;;
74689;SDS011;63221;51.860;-2.188;2023-07-13T04:32:45;6.00;;;1.98;;
74689;SDS011;63221;51.860;-2.188;2023-07-13T04:35:11;6.77;;;1.73;;
74689;SDS011;63221;51.860;-2.188;2023-07-13T04:37:36;4.30;;;1.73;;
74689;SDS011;63221;51.860;-2.188;2023-07-13T04:40:02;4.20;;;2.47;;
74689;SDS011;63221;51.860;-2.188;2023-07-13T04:42:28;6.82;;;3.00;;
74689;SDS011;63221;51.860;-2.188;2023-07-13T04:44:54;5.25;;;2.53;;
74689;SDS011;63221;51.860;-2.188;2023-07-13T04:47:20;5.60;;;2.30;;
74689;SDS011;63221;51.860;-2.188;2023-07-13T04:49:45;5.88;;;2.75;;
74689;SDS011;63221;51.860;-2.188;2023-07-13T04:52:11;6.20;;;2.50;;
74689;SDS011;63221;51.860;-2.188;2023-07-13T04:54:37;5.57;;;2.13;;
74689;SDS011;63221;51.860;-2.188;2023-07-13T04:57:03;7.60;;;2.03;;
74689;SDS011;63221;51.860;-2.188;2023-07-13T04:59:31;4.32;;;1.98;;
74689;SDS011;63221;51.860;-2.188;2023-07-13T05:01:59;5.07;;;3.20;;
74689;SDS011;63221;51.860;-2.188;2023-07-13T05:04:26;6.73;;;2.70;;
74689;SDS011;63221;51.860;-2.188;2023-07-13T05:06:52;7.05;;;2.15;;
74689;SDS011;63221;51.860;-2.188;2023-07-13T05:09:17;5.93;;;2.93;;
74689;SDS011;63221;51.860;-2.188;2023-07-13T05:11:43;8.03;;;2.60;;
74689;SDS011;63221;51.860;-2.188;2023-07-13T05:14:08;5.68;;;3.03;;
74689;SDS011;63221;51.860;-2.188;2023-07-13T05:16:34;6.55;;;2.65;;
74689;SDS011;63221;51.860;-2.188;2023-07-13T05:19:00;3.73;;;2.13;;
74689;SDS011;63221;51.860;-2.188;2023-07-13T05:21:25;9.98;;;2.72;;
74689;SDS011;63221;51.860;-2.188;2023-07-13T05:23:51;5.23;;;2.40;;
74689;SDS011;63221;51.860;-2.188;2023-07-13T05:26:16;5.33;;;2.37;;
74689;SDS011;63221;51.860;-2.188;2023-07-13T05:28:42;5.03;;;2.03;;
74689;SDS011;63221;51.860;-2.188;2023-07-13T05:31:08;4.70;;;2.70;;
74689;SDS011;63221;51.860;-2.188;2023-07-13T05:33:34;6.00;;;2.60;;
74689;SDS011;63221;51.860;-2.188;2023-07-13T05:36:00;6.22;;;2.45;;
74689;SDS011;63221;51.860;-2.188;2023-07-13T05:38:25;4.27;;;2.90;;
74689;SDS011;63221;51.860;-2.188;2023-07-13T05:40:52;6.45;;;2.83;;
74689;SDS011;63221;51.860;-2.188;2023-07-13T05:43:18;7.85;;;2.28;;
74689;SDS011;63221;51.860;-2.188;2023-07-13T05:45:44;7.63;;;2.37;;
74689;SDS011;63221;51.860;-2.188;2023-07-13T05:48:09;6.57;;;2.70;;
74689;SDS011;63221;51.860;-2.188;2023-07-13T05:50:35;7.10;;;2.60;;
74689;SDS011;63221;51.860;-2.188;2023-07-13T05:53:00;5.80;;;1.95;;
74689;SDS011;63221;51.860;-2.188;2023-07-13T05:55:25;5.17;;;2.13;;
74689;SDS011;63221;51.860;-2.188;2023-07-13T05:57:51;5.07;;;2.80;;
74689;SDS011;63221;51.860;-2.188;2023-07-13T06:00:16;6.47;;;2.57;;
74689;SDS011;63221;51.860;-2.188;2023-07-13T06:02:42;7.07;;;2.53;;
74689;SDS011;63221;51.860;-2.188;2023-07-13T06:05:08;7.73;;;3.33;;
74689;SDS011;63221;51.860;-2.188;2023-07-13T06:07:33;5.60;;;2.42;;
74689;SDS011;63221;51.860;-2.188;2023-07-13T06:09:59;4.83;;;2.87;;
74689;SDS011;63221;51.860;-2.188;2023-07-13T06:12:24;6.47;;;2.50;;
74689;SDS011;63221;51.860;-2.188;2023-07-13T06:14:50;4.97;;;2.55;;
74689;SDS011;63221;51.860;-2.188;2023-07-13T06:17:16;8.00;;;2.90;;
74689;SDS011;63221;51.860;-2.188;2023-07-13T06:19:41;6.80;;;2.90;;
74689;SDS011;63221;51.860;-2.188;2023-07-13T06:22:07;6.53;;;2.83;;
74689;SDS011;63221;51.860;-2.188;2023-07-13T06:24:32;6.20;;;3.37;;
74689;SDS011;63221;51.860;-2.188;2023-07-13T06:26:58;9.90;;;3.00;;
74689;SDS011;63221;51.860;-2.188;2023-07-13T06:29:23;5.73;;;2.17;;
74689;SDS011;63221;51.860;-2.188;2023-07-13T06:31:49;5.00;;;2.73;;
74689;SDS011;63221;51.860;-2.188;2023-07-13T06:34:14;5.13;;;2.43;;
74689;SDS011;63221;51.860;-2.188;2023-07-13T06:36:39;5.93;;;2.70;;
74689;SDS011;63221;51.860;-2.188;2023-07-13T06:39:06;8.43;;;3.15;;
74689;SDS011;63221;51.860;-2.188;2023-07-13T06:41:31;6.20;;;2.95;;
74689;SDS011;63221;51.860;-2.188;2023-07-13T06:43:58;7.22;;;3.20;;
74689;SDS011;63221;51.860;-2.188;2023-07-13T06:46:23;8.00;;;3.60;;
74689;SDS011;63221;51.860;-2.188;2023-07-13T06:48:49;7.17;;;3.37;;
74689;SDS011;63221;51.860;-2.188;2023-07-13T06:51:15;9.23;;;3.55;;
74689;SDS011;63221;51.860;-2.188;2023-07-13T06:53:40;7.47;;;3.87;;
74689;SDS011;63221;51.860;-2.188;2023-07-13T06:56:07;6.47;;;3.67;;
74689;SDS011;63221;51.860;-2.188;2023-07-13T06:58:33;7.00;;;4.45;;
74689;SDS011;63221;51.860;-2.188;2023-07-13T07:00:59;11.13;;;4.53;;
74689;SDS011;63221;51.860;-2.188;2023-07-13T07:03:24;7.00;;;3.93;;
74689;SDS011;63221;51.860;-2.188;2023-07-13T07:05:50;7.27;;;3.47;;
74689;SDS011;63221;51.860;-2.188;2023-07-13T07:08:15;6.90;;;3.50;;
74689;SDS011;63221;51.860;-2.188;2023-07-13T07:10:40;8.07;;;3.97;;
74689;SDS011;63221;51.860;-2.188;2023-07-13T07:13:06;5.33;;;3.83;;
74689;SDS011;63221;51.860;-2.188;2023-07-13T07:15:32;7.05;;;4.18;;
74689;SDS011;63221;51.860;-2.188;2023-07-13T07:17:59;5.90;;;3.60;;
74689;SDS011;63221;51.860;-2.188;2023-07-13T07:20:25;7.22;;;4.07;;
74689;SDS011;63221;51.860;-2.188;2023-07-13T07:22:51;8.93;;;4.37;;
74689;SDS011;63221;51.860;-2.188;2023-07-13T07:25:16;8.77;;;4.18;;
74689;SDS011;63221;51.860;-2.188;2023-07-13T07:27:42;6.70;;;3.70;;
74689;SDS011;63221;51.860;-2.188;2023-07-13T07:30:08;6.60;;;3.80;;
74689;SDS011;63221;51.860;-2.188;2023-07-13T07:32:33;7.15;;;4.50;;
74689;SDS011;63221;51.860;-2.188;2023-07-13T07:34:59;6.70;;;4.07;;
74689;SDS011;63221;51.860;-2.188;2023-07-13T07:37:24;11.40;;;4.20;;
74689;SDS011;63221;51.860;-2.188;2023-07-13T07:39:49;7.47;;;3.65;;
74689;SDS011;63221;51.860;-2.188;2023-07-13T07:42:15;8.40;;;4.00;;
74689;SDS011;63221;51.860;-2.188;2023-07-13T07:44:41;5.13;;;3.57;;
74689;SDS011;63221;51.860;-2.188;2023-07-13T07:47:07;7.15;;;3.38;;
74689;SDS011;63221;51.860;-2.188;2023-07-13T07:49:33;6.22;;;3.75;;
74689;SDS011;63221;51.860;-2.188;2023-07-13T07:51:58;4.53;;;2.87;;
74689;SDS011;63221;51.860;-2.188;2023-07-13T07:54:23;6.00;;;3.20;;
74689;SDS011;63221;51.860;-2.188;2023-07-13T07:56:49;6.27;;;2.67;;
74689;SDS011;63221;51.860;-2.188;2023-07-13T07:59:14;5.47;;;3.20;;
74689;SDS011;63221;51.860;-2.188;2023-07-13T08:01:40;5.80;;;2.90;;
74689;SDS011;63221;51.860;-2.188;2023-07-13T08:04:05;6.40;;;3.23;;
74689;SDS011;63221;51.860;-2.188;2023-07-13T08:06:33;7.60;;;2.77;;
74689;SDS011;63221;51.860;-2.188;2023-07-13T08:08:59;4.88;;;2.88;;
74689;SDS011;63221;51.860;-2.188;2023-07-13T08:11:25;4.00;;;3.00;;
74689;SDS011;63221;51.860;-2.188;2023-07-13T08:13:50;5.63;;;3.00;;
74689;SDS011;63221;51.860;-2.188;2023-07-13T08:16:16;5.60;;;3.10;;
74689;SDS011;63221;51.860;-2.188;2023-07-13T08:18:41;5.17;;;2.43;;
74689;SDS011;63221;51.860;-2.188;2023-07-13T08:21:08;9.13;;;3.17;;
74689;SDS011;63221;51.860;-2.188;2023-07-13T08:23:34;4.93;;;3.30;;
74689;SDS011;63221;51.860;-2.188;2023-07-13T08:26:00;6.80;;;3.17;;
74689;SDS011;63221;51.860;-2.188;2023-07-13T08:28:29;4.70;;;3.00;;
74689;SDS011;63221;51.860;-2.188;2023-07-13T08:30:55;4.73;;;2.73;;
74689;SDS011;63221;51.860;-2.188;2023-07-13T08:33:21;3.87;;;2.03;;
74689;SDS011;63221;51.860;-2.188;2023-07-13T08:35:49;5.05;;;2.60;;
74689;SDS011;63221;51.860;-2.188;2023-07-13T08:38:16;4.60;;;1.75;;
74689;SDS011;63221;51.860;-2.188;2023-07-13T08:40:42;5.72;;;2.28;;
74689;SDS011;63221;51.860;-2.188;2023-07-13T08:43:18;3.30;;;2.50;;
74689;SDS011;63221;51.860;-2.188;2023-07-13T08:48:59;5.43;;;2.00;;
74689;SDS011;63221;51.860;-2.188;2023-07-13T08:53:59;5.43;;;2.47;;
74689;SDS011;63221;51.860;-2.188;2023-07-13T08:56:30;4.43;;;2.25;;
74689;SDS011;63221;51.860;-2.188;2023-07-13T08:58:57;5.23;;;2.20;;
74689;SDS011;63221;51.860;-2.188;2023-07-13T09:04:35;4.28;;;2.10;;
74689;SDS011;63221;51.860;-2.188;2023-07-13T09:09:15;6.78;;;2.00;;
74689;SDS011;63221;51.860;-2.188;2023-07-13T09:12:01;6.17;;;2.23;;
74689;SDS011;63221;51.860;-2.188;2023-07-13T09:14:34;4.22;;;2.00;;
74689;SDS011;63221;51.860;-2.188;2023-07-13T09:17:08;5.20;;;2.00;;
74689;SDS011;63221;51.860;-2.188;2023-07-13T09:19:37;2.92;;;2.42;;
74689;SDS011;63221;51.860;-2.188;2023-07-13T09:22:03;4.03;;;2.00;;
74689;SDS011;63221;51.860;-2.188;2023-07-13T09:27:20;4.57;;;2.03;;
74689;SDS011;63221;51.860;-2.188;2023-07-13T09:30:20;7.80;;;1.98;;
74689;SDS011;63221;51.860;-2.188;2023-07-13T09:33:14;3.97;;;1.77;;
74689;SDS011;63221;51.860;-2.188;2023-07-13T09:35:40;4.82;;;2.17;;
74689;SDS011;63221;51.860;-2.188;2023-07-13T09:38:15;5.40;;;2.13;;
74689;SDS011;63221;51.860;-2.188;2023-07-13T09:40:46;4.80;;;1.98;;
74689;SDS011;63221;51.860;-2.188;2023-07-13T09:43:34;2.85;;;2.08;;
74689;SDS011;63221;51.860;-2.188;2023-07-13T09:45:59;4.20;;;2.00;;
74689;SDS011;63221;51.860;-2.188;2023-07-13T09:48:25;4.65;;;1.58;;
74689;SDS011;63221;51.860;-2.188;2023-07-13T09:51:03;2.88;;;1.35;;
74689;SDS011;63221;51.860;-2.188;2023-07-13T09:53:32;5.10;;;2.17;;
74689;SDS011;63221;51.860;-2.188;2023-07-13T09:55:57;3.67;;;1.37;;
74689;SDS011;63221;51.860;-2.188;2023-07-13T09:58:25;4.77;;;2.10;;
74689;SDS011;63221;51.860;-2.188;2023-07-13T10:03:29;2.67;;;1.98;;
74689;SDS011;63221;51.860;-2.188;2023-07-13T10:06:01;2.63;;;2.07;;
74689;SDS011;63221;51.860;-2.188;2023-07-13T10:08:39;3.17;;;1.90;;
74689;SDS011;63221;51.860;-2.188;2023-07-13T10:13:37;3.83;;;1.97;;
74689;SDS011;63221;51.860;-2.188;2023-07-13T10:16:07;4.50;;;2.65;;
74689;SDS011;63221;51.860;-2.188;2023-07-13T10:18:40;2.97;;;2.13;;
74689;SDS011;63221;51.860;-2.188;2023-07-13T10:21:27;2.88;;;1.85;;
74689;SDS011;63221;51.860;-2.188;2023-07-13T10:24:18;2.95;;;1.70;;
74689;SDS011;63221;51.860;-2.188;2023-07-13T10:29:26;4.57;;;2.10;;
74689;SDS011;63221;51.860;-2.188;2023-07-13T10:31:52;3.72;;;2.08;;
74689;SDS011;63221;51.860;-2.188;2023-07-13T10:34:18;2.23;;;1.07;;
74689;SDS011;63221;51.860;-2.188;2023-07-13T10:36:45;5.13;;;1.40;;
74689;SDS011;63221;51.860;-2.188;2023-07-13T10:39:16;2.80;;;1.48;;
74689;SDS011;63221;51.860;-2.188;2023-07-13T10:41:44;2.37;;;1.53;;
74689;SDS011;63221;51.860;-2.188;2023-07-13T10:44:18;3.50;;;1.00;;
74689;SDS011;63221;51.860;-2.188;2023-07-13T10:46:46;2.55;;;1.65;;
74689;SDS011;63221;51.860;-2.188;2023-07-13T10:49:12;3.13;;;1.20;;
74689;SDS011;63221;51.860;-2.188;2023-07-13T10:51:38;2.07;;;1.10;;
74689;SDS011;63221;51.860;-2.188;2023-07-13T10:54:12;3.38;;;1.33;;
74689;SDS011;63221;51.860;-2.188;2023-07-13T10:56:41;3.20;;;1.70;;
74689;SDS011;63221;51.860;-2.188;2023-07-13T10:59:40;3.50;;;1.57;;
74689;SDS011;63221;51.860;-2.188;2023-07-13T11:02:06;2.08;;;1.20;;
74689;SDS011;63221;51.860;-2.188;2023-07-13T11:04:44;2.63;;;1.52;;
74689;SDS011;63221;51.860;-2.188;2023-07-13T11:07:22;3.90;;;1.50;;
74689;SDS011;63221;51.860;-2.188;2023-07-13T11:10:45;3.55;;;1.40;;
74689;SDS011;63221;51.860;-2.188;2023-07-13T11:12:58;4.25;;;1.10;;
74689;SDS011;63221;51.860;-2.188;2023-07-13T11:15:28;2.43;;;1.23;;
74689;SDS011;63221;51.860;-2.188;2023-07-13T11:17:56;2.13;;;0.98;;
74689;SDS011;63221;51.860;-2.188;2023-07-13T11:20:48;2.10;;;1.30;;
74689;SDS011;63221;51.860;-2.188;2023-07-13T11:25:37;3.40;;;1.40;;
74689;SDS011;63221;51.860;-2.188;2023-07-13T11:30:41;1.50;;;0.80;;
74689;SDS011;63221;51.860;-2.188;2023-07-13T11:33:19;2.00;;;0.93;;
74689;SDS011;63221;51.860;-2.188;2023-07-13T11:38:20;2.28;;;1.15;;
74689;SDS011;63221;51.860;-2.188;2023-07-13T11:40:48;3.22;;;1.55;;
74689;SDS011;63221;51.860;-2.188;2023-07-13T11:43:15;3.67;;;1.42;;
74689;SDS011;63221;51.860;-2.188;2023-07-13T11:45:41;2.67;;;1.30;;
74689;SDS011;63221;51.860;-2.188;2023-07-13T11:48:19;3.80;;;1.00;;
74689;SDS011;63221;51.860;-2.188;2023-07-13T11:51:13;3.75;;;1.05;;
74689;SDS011;63221;51.860;-2.188;2023-07-13T11:53:44;2.60;;;1.00;;
74689;SDS011;63221;51.860;-2.188;2023-07-13T11:56:11;3.35;;;1.20;;
74689;SDS011;63221;51.860;-2.188;2023-07-13T11:58:37;3.30;;;1.40;;
74689;SDS011;63221;51.860;-2.188;2023-07-13T12:01:03;3.97;;;1.20;;
74689;SDS011;63221;51.860;-2.188;2023-07-13T12:03:32;2.97;;;1.20;;
74689;SDS011;63221;51.860;-2.188;2023-07-13T12:06:04;4.70;;;1.40;;
74689;SDS011;63221;51.860;-2.188;2023-07-13T12:08:39;3.80;;;1.23;;
74689;SDS011;63221;51.860;-2.188;2023-07-13T12:11:06;2.65;;;1.00;;
74689;SDS011;63221;51.860;-2.188;2023-07-13T12:13:39;2.90;;;1.55;;
74689;SDS011;63221;51.860;-2.188;2023-07-13T12:16:15;3.30;;;1.57;;
74689;SDS011;63221;51.860;-2.188;2023-07-13T12:18:42;3.83;;;0.95;;
74689;SDS011;63221;51.860;-2.188;2023-07-13T12:21:12;2.85;;;1.23;;
74689;SDS011;63221;51.860;-2.188;2023-07-13T12:23:39;3.53;;;1.13;;
74689;SDS011;63221;51.860;-2.188;2023-07-13T12:26:05;3.15;;;1.30;;
74689;SDS011;63221;51.860;-2.188;2023-07-13T12:28:33;2.40;;;1.17;;
74689;SDS011;63221;51.860;-2.188;2023-07-13T12:31:05;2.83;;;1.87;;
74689;SDS011;63221;51.860;-2.188;2023-07-13T12:33:32;2.75;;;1.42;;
74689;SDS011;63221;51.860;-2.188;2023-07-13T12:36:02;3.90;;;1.70;;
74689;SDS011;63221;51.860;-2.188;2023-07-13T12:38:30;4.40;;;2.28;;
74689;SDS011;63221;51.860;-2.188;2023-07-13T12:40:55;2.88;;;1.38;;
74689;SDS011;63221;51.860;-2.188;2023-07-13T12:43:22;3.23;;;1.10;;
74689;SDS011;63221;51.860;-2.188;2023-07-13T12:46:48;3.58;;;1.55;;
74689;SDS011;63221;51.860;-2.188;2023-07-13T12:48:51;2.40;;;1.05;;
74689;SDS011;63221;51.860;-2.188;2023-07-13T12:51:20;5.65;;;1.33;;
74689;SDS011;63221;51.860;-2.188;2023-07-13T12:53:48;4.20;;;1.13;;
74689;SDS011;63221;51.860;-2.188;2023-07-13T12:56:22;4.20;;;2.00;;
74689;SDS011;63221;51.860;-2.188;2023-07-13T12:58:49;5.00;;;1.60;;
74689;SDS011;63221;51.860;-2.188;2023-07-13T13:01:20;2.92;;;1.13;;
74689;SDS011;63221;51.860;-2.188;2023-07-13T13:03:47;4.38;;;1.98;;
74689;SDS011;63221;51.860;-2.188;2023-07-13T13:08:43;3.87;;;1.87;;
74689;SDS011;63221;51.860;-2.188;2023-07-13T13:11:10;4.85;;;2.20;;
74689;SDS011;63221;51.860;-2.188;2023-07-13T13:13:35;4.77;;;2.00;;
74689;SDS011;63221;51.860;-2.188;2023-07-13T13:16:22;4.93;;;1.77;;
74689;SDS011;63221;51.860;-2.188;2023-07-13T13:19:11;2.30;;;1.60;;
74689;SDS011;63221;51.860;-2.188;2023-07-13T13:21:38;4.63;;;2.03;;
74689;SDS011;63221;51.860;-2.188;2023-07-13T13:24:10;5.20;;;2.13;;
74689;SDS011;63221;51.860;-2.188;2023-07-13T13:26:36;2.85;;;2.08;;
74689;SDS011;63221;51.860;-2.188;2023-07-13T13:29:16;3.50;;;2.38;;
74689;SDS011;63221;51.860;-2.188;2023-07-13T13:31:45;3.47;;;2.25;;
74689;SDS011;63221;51.860;-2.188;2023-07-13T13:34:11;3.27;;;1.93;;
74689;SDS011;63221;51.860;-2.188;2023-07-13T13:36:39;3.60;;;2.33;;
74689;SDS011;63221;51.860;-2.188;2023-07-13T13:39:08;3.03;;;1.63;;
74689;SDS011;63221;51.860;-2.188;2023-07-13T13:41:46;2.42;;;1.83;;
74689;SDS011;63221;51.860;-2.188;2023-07-13T13:44:13;2.28;;;1.90;;
74689;SDS011;63221;51.860;-2.188;2023-07-13T13:46:40;2.20;;;1.33;;
74689;SDS011;63221;51.860;-2.188;2023-07-13T13:49:08;3.20;;;1.75;;
74689;SDS011;63221;51.860;-2.188;2023-07-13T13:51:41;2.45;;;1.73;;
74689;SDS011;63221;51.860;-2.188;2023-07-13T13:54:09;4.70;;;1.90;;
74689;SDS011;63221;51.860;-2.188;2023-07-13T13:56:36;4.53;;;1.48;;
74689;SDS011;63221;51.860;-2.188;2023-07-13T13:59:01;3.50;;;1.57;;
74689;SDS011;63221;51.860;-2.188;2023-07-13T14:01:27;3.10;;;1.63;;
74689;SDS011;63221;51.860;-2.188;2023-07-13T14:03:53;4.17;;;1.43;;
74689;SDS011;63221;51.860;-2.188;2023-07-13T14:06:19;3.97;;;1.90;;
74689;SDS011;63221;51.860;-2.188;2023-07-13T14:08:44;3.27;;;2.10;;
74689;SDS011;63221;51.860;-2.188;2023-07-13T14:11:11;2.80;;;1.83;;
74689;SDS011;63221;51.860;-2.188;2023-07-13T14:13:58;3.95;;;1.60;;
74689;SDS011;63221;51.860;-2.188;2023-07-13T14:16:31;3.53;;;1.45;;
74689;SDS011;63221;51.860;-2.188;2023-07-13T14:18:58;3.55;;;1.60;;
74689;SDS011;63221;51.860;-2.188;2023-07-13T14:21:25;4.30;;;1.67;;
74689;SDS011;63221;51.860;-2.188;2023-07-13T14:23:52;4.70;;;1.20;;
74689;SDS011;63221;51.860;-2.188;2023-07-13T14:26:25;2.65;;;1.65;;
74689;SDS011;63221;51.860;-2.188;2023-07-13T14:28:52;2.23;;;1.20;;
74689;SDS011;63221;51.860;-2.188;2023-07-13T14:31:20;3.33;;;0.80;;
74689;SDS011;63221;51.860;-2.188;2023-07-13T14:33:46;3.83;;;1.60;;
74689;SDS011;63221;51.860;-2.188;2023-07-13T14:38:52;2.50;;;1.17;;
74689;SDS011;63221;51.860;-2.188;2023-07-13T14:41:18;3.13;;;1.33;;
74689;SDS011;63221;51.860;-2.188;2023-07-13T14:43:43;3.55;;;1.85;;
74689;SDS011;63221;51.860;-2.188;2023-07-13T14:46:16;2.73;;;1.37;;
74689;SDS011;63221;51.860;-2.188;2023-07-13T14:48:47;2.05;;;0.90;;
74689;SDS011;63221;51.860;-2.188;2023-07-13T14:51:13;2.20;;;1.70;;
74689;SDS011;63221;51.860;-2.188;2023-07-13T14:53:39;2.83;;;1.30;;
74689;SDS011;63221;51.860;-2.188;2023-07-13T14:56:11;3.27;;;1.00;;
74689;SDS011;63221;51.860;-2.188;2023-07-13T14:58:37;2.38;;;1.10;;
74689;SDS011;63221;51.860;-2.188;2023-07-13T15:01:07;1.70;;;1.33;;
74689;SDS011;63221;51.860;-2.188;2023-07-13T15:03:37;2.10;;;1.35;;
74689;SDS011;63221;51.860;-2.188;2023-07-13T15:06:08;2.87;;;1.13;;
74689;SDS011;63221;51.860;-2.188;2023-07-13T15:08:35;2.65;;;1.48;;
74689;SDS011;63221;51.860;-2.188;2023-07-13T15:11:00;5.13;;;1.83;;
74689;SDS011;63221;51.860;-2.188;2023-07-13T15:13:26;3.00;;;1.33;;
74689;SDS011;63221;51.860;-2.188;2023-07-13T15:15:53;3.75;;;1.83;;